Christine Anderson — WCN2606 — position and weather

sailwx.info

Track history (hours):
 
Tides and Currents Weather Stations Pressure Air Temp Water Temp Dewpoint Dewpoint Depression Visibility Wind Speed Wind Dir Waves Ship Positions

Christine Anderson

Owner: PIERCE, COUNTY OF, TACOMA, WA. More information available from US FCC via Universal Licensing System and Coast Guard Vessel Documentation Center.

Last reported at 2015-Jan-13 03:11 UTC. Time now 2015-Jan-29 14:17 UTC.
Position N 47°10' W 122°36'.
Warning: this ship's position is 16 days out of date.

MMSI: 366659730.

Date/timePositionNaut miles runAvg speedWind from/ knotsBaromVisibWave heightAir tempDewpointWater temp
2015-Jan-13 03:11N 47°10' W 122°36'4 6.7
2015-Jan-13 02:33N 47°14' W 122°34'1212.2
2015-Jan-13 01:34N 47°26' W 122°31'111.1
2015-Jan-13 01:29N 47°27' W 122°31'1111.3
2015-Jan-13 00:33N 47°36' W 122°22'0 7.1
2015-Jan-13 00:30N 47°35' W 122°22'6 6.4
2015-Jan-12 23:34N 47°40' W 122°26'110.5
2015-Jan-12 23:30N 47°40' W 122°27'6 5.9
2015-Jan-12 22:34N 47°35' W 122°22'0 0.0
2015-Jan-12 22:29N 47°35' W 122°22'0 0.0
2015-Jan-12 21:34N 47°35' W 122°22'0 0.0
2015-Jan-12 21:29N 47°35' W 122°22'0 0.0
2015-Jan-12 20:33N 47°35' W 122°22'0 0.0
2015-Jan-12 20:29N 47°35' W 122°22'  
Track history (hours):
 
Tides and Currents Weather Stations Pressure Air Temp Water Temp Dewpoint Dewpoint Depression Visibility Wind Speed Wind Dir Waves Ship Positions

Christine Anderson

Owner: PIERCE, COUNTY OF, TACOMA, WA. More information available from US FCC via Universal Licensing System and Coast Guard Vessel Documentation Center.

Last reported at 2015-Jan-13 03:11 UTC. Time now 2015-Jan-29 14:17 UTC.
Position N 47°10' W 122°36'.
Warning: this ship's position is 16 days out of date.

MMSI: 366659730.

Date/timePositionNaut miles runAvg speedWind from/ knotsBaromVisibWave heightAir tempDewpointWater temp
2015-Jan-13 03:11N 47°10' W 122°36'4 6.7
2015-Jan-13 02:33N 47°14' W 122°34'1212.2
2015-Jan-13 01:34N 47°26' W 122°31'111.1
2015-Jan-13 01:29N 47°27' W 122°31'1111.3
2015-Jan-13 00:33N 47°36' W 122°22'0 7.1
2015-Jan-13 00:30N 47°35' W 122°22'6 6.4
2015-Jan-12 23:34N 47°40' W 122°26'110.5
2015-Jan-12 23:30N 47°40' W 122°27'6 5.9
2015-Jan-12 22:34N 47°35' W 122°22'0 0.0
2015-Jan-12 22:29N 47°35' W 122°22'0 0.0
2015-Jan-12 21:34N 47°35' W 122°22'0 0.0
2015-Jan-12 21:29N 47°35' W 122°22'0 0.0
2015-Jan-12 20:33N 47°35' W 122°22'0 0.0
2015-Jan-12 20:29N 47°35' W 122°22'  

Dump ship's entire track history